Time;durP1;ratioP1;P1;durP2;ratioP2;P2;SDS_P1;SDS_P2;PMS_P1;PMS_P2;Temp;Humidity;BMP_temperature;BMP_pressure;BME280_temperature;BME280_humidity;BME280_pressure;Samples;Min_cycle;Max_cycle;Signal;HPM_P1;HPM_P2
2022/04/09 00:02:05;;;;;;;4.18;1.48;;;;;;;;;;4954146;29;20376;-35
2022/04/09 00:04:30;;;;;;;10.02;1.17;;;;;;;;;;4954190;28;20533;-35
2022/04/09 00:06:56;;;;;;;11.93;2.70;;;;;;;;;;4953371;28;20023;-35
2022/04/09 00:09:21;;;;;;;5.32;0.88;;;;;;;;;;4954179;28;20043;-34
2022/04/09 00:11:47;;;;;;;11.15;1.33;;;;;;;;;;4953644;28;20042;-35
2022/04/09 00:14:12;;;;;;;10.10;2.08;;;;;;;;;;4953983;28;20089;-35
2022/04/09 00:16:38;;;;;;;5.53;1.13;;;;;;;;;;4953798;28;20398;-35
2022/04/09 00:19:04;;;;;;;4.78;0.63;;;;;;;;;;4953746;28;20037;-35
2022/04/09 00:21:30;;;;;;;4.43;0.95;;;;;;;;;;4952452;28;20019;-35
2022/04/09 00:23:55;;;;;;;6.35;1.45;;;;;;;;;;4953663;28;20114;-35
2022/04/09 00:26:20;;;;;;;5.10;1.80;;;;;;;;;;4953529;28;20011;-35
2022/04/09 00:28:46;;;;;;;4.20;1.10;;;;;;;;;;4953862;28;20039;-35
2022/04/09 00:31:12;;;;;;;4.30;0.75;;;;;;;;;;4953435;28;20031;-35
2022/04/09 00:33:37;;;;;;;6.38;1.05;;;;;;;;;;4953455;28;20135;-34
2022/04/09 00:36:03;;;;;;;9.23;1.13;;;;;;;;;;4953442;28;20034;-40
2022/04/09 00:38:29;;;;;;;1.38;0.63;;;;;;;;;;4953430;28;20046;-35
2022/04/09 00:40:55;;;;;;;8.73;1.13;;;;;;;;;;4953503;28;20019;-35
2022/04/09 00:43:21;;;;;;;12.88;1.08;;;;;;;;;;4967909;28;20051;-35
2022/04/09 00:45:49;;;;;;;2.28;1.20;;;;;;;;;;4953394;28;20038;-35
2022/04/09 00:48:16;;;;;;;9.90;1.35;;;;;;;;;;4951961;28;20075;-41
2022/04/09 00:50:42;;;;;;;8.45;1.02;;;;;;;;;;4952083;29;20024;-35
2022/04/09 00:53:08;;;;;;;8.07;1.75;;;;;;;;;;4953020;28;20050;-35
2022/04/09 00:58:19;;;;;;;8.52;1.88;;;;;;;;;;4968014;28;20043;-34
2022/04/09 01:00:44;;;;;;;9.45;1.10;;;;;;;;;;4951899;29;20026;-34
2022/04/09 01:03:16;;;;;;;4.47;1.08;;;;;;;;;;4967903;28;20037;-35
2022/04/09 01:05:43;;;;;;;4.78;0.80;;;;;;;;;;4953218;28;20039;-34
2022/04/09 01:08:09;;;;;;;4.63;0.85;;;;;;;;;;4951782;28;20023;-35
2022/04/09 01:10:34;;;;;;;5.28;0.93;;;;;;;;;;4968029;28;20034;-35
2022/04/09 01:13:01;;;;;;;9.00;1.48;;;;;;;;;;4951613;28;20397;-35
2022/04/09 01:15:27;;;;;;;7.63;1.40;;;;;;;;;;4953120;28;20027;-35
2022/04/09 01:17:52;;;;;;;4.03;1.08;;;;;;;;;;4952026;28;20529;-35
2022/04/09 01:20:19;;;;;;;7.85;1.40;;;;;;;;;;4956865;28;20035;-34
2022/04/09 01:22:47;;;;;;;5.85;1.85;;;;;;;;;;4956775;29;20034;-35
2022/04/09 01:25:13;;;;;;;7.13;1.27;;;;;;;;;;4955498;28;20034;-34
2022/04/09 01:27:40;;;;;;;4.93;1.23;;;;;;;;;;4955563;29;20027;-35
2022/04/09 01:30:05;;;;;;;6.32;0.93;;;;;;;;;;4955321;28;20031;-35
2022/04/09 01:32:31;;;;;;;4.07;1.10;;;;;;;;;;4955401;28;20046;-35
2022/04/09 01:35:01;;;;;;;6.35;1.20;;;;;;;;;;4971527;28;20035;-35
2022/04/09 01:37:29;;;;;;;6.82;1.33;;;;;;;;;;4971526;28;20054;-35
2022/04/09 01:39:56;;;;;;;2.83;1.08;;;;;;;;;;4955390;28;20089;-35
2022/04/09 01:42:22;;;;;;;5.97;1.50;;;;;;;;;;4955151;28;20486;-35
2022/04/09 01:44:49;;;;;;;6.07;1.00;;;;;;;;;;4971228;28;20075;-35
2022/04/09 01:47:14;;;;;;;12.02;1.88;;;;;;;;;;4955094;28;20067;-35
2022/04/09 01:49:40;;;;;;;4.90;1.52;;;;;;;;;;4956679;28;20028;-35
2022/04/09 01:52:07;;;;;;;8.32;1.15;;;;;;;;;;4939089;28;20386;-35
2022/04/09 01:54:33;;;;;;;5.82;1.45;;;;;;;;;;4971132;28;20238;-35
2022/04/09 01:56:59;;;;;;;8.90;1.67;;;;;;;;;;4954721;29;20434;-35
2022/04/09 01:59:24;;;;;;;5.35;0.98;;;;;;;;;;4956306;28;20062;-35
2022/04/09 02:01:51;;;;;;;3.50;1.20;;;;;;;;;;4970981;28;20020;-35
2022/04/09 02:04:17;;;;;;;8.77;1.95;;;;;;;;;;4970864;28;20031;-35
2022/04/09 02:06:42;;;;;;;6.88;1.33;;;;;;;;;;4954863;28;20023;-35
2022/04/09 02:09:11;;;;;;;6.18;1.50;;;;;;;;;;4970819;28;20039;-35
2022/04/09 02:11:40;;;;;;;8.50;1.55;;;;;;;;;;4954571;28;20106;-36
2022/04/09 02:14:09;;;;;;;2.55;0.98;;;;;;;;;;4970744;28;20031;-35
2022/04/09 02:16:35;;;;;;;6.15;1.42;;;;;;;;;;4955999;28;20443;-35
2022/04/09 02:19:02;;;;;;;6.65;1.40;;;;;;;;;;4955830;28;20039;-35
2022/04/09 02:21:27;;;;;;;7.03;1.30;;;;;;;;;;4954596;28;20019;-35
2022/04/09 02:23:53;;;;;;;4.28;1.13;;;;;;;;;;4955825;28;20435;-35
2022/04/09 02:26:18;;;;;;;3.55;1.10;;;;;;;;;;4954319;28;20023;-35
2022/04/09 02:28:47;;;;;;;6.80;1.30;;;;;;;;;;4970102;28;20059;-35
2022/04/09 02:31:15;;;;;;;7.65;1.63;;;;;;;;;;4954282;28;20237;-35
2022/04/09 02:33:41;;;;;;;8.13;1.63;;;;;;;;;;4970387;28;20401;-35
2022/04/09 02:36:09;;;;;;;4.72;1.35;;;;;;;;;;4954213;28;20023;-35
2022/04/09 02:38:36;;;;;;;11.15;4.05;;;;;;;;;;4954337;28;20082;-35
2022/04/09 02:41:02;;;;;;;5.28;1.15;;;;;;;;;;4954003;28;20114;-35
2022/04/09 02:43:29;;;;;;;5.93;1.92;;;;;;;;;;4970094;28;20465;-35
2022/04/09 02:45:55;;;;;;;4.70;1.33;;;;;;;;;;4954174;29;20130;-35
2022/04/09 02:48:21;;;;;;;1.95;1.08;;;;;;;;;;4970091;28;20417;-36
2022/04/09 02:50:50;;;;;;;4.78;1.83;;;;;;;;;;4954094;29;20019;-35
2022/04/09 02:53:19;;;;;;;4.78;1.45;;;;;;;;;;4969896;28;20078;-35
2022/04/09 02:55:45;;;;;;;8.02;1.60;;;;;;;;;;4953908;28;20090;-35
2022/04/09 02:58:10;;;;;;;3.03;0.88;;;;;;;;;;4969960;28;20486;-35
2022/04/09 03:00:38;;;;;;;4.25;1.92;;;;;;;;;;4953838;28;20023;-35
2022/04/09 03:03:05;;;;;;;4.20;1.35;;;;;;;;;;4969825;28;20085;-35
2022/04/09 03:05:50;;;;;;;5.15;1.42;;;;;;;;;;4954771;28;20466;-35
2022/04/09 03:08:16;;;;;;;7.03;2.33;;;;;;;;;;4955150;28;20031;-35
2022/04/09 03:10:41;;;;;;;6.75;1.30;;;;;;;;;;4969786;28;20467;-35
2022/04/09 03:13:07;;;;;;;3.92;1.17;;;;;;;;;;4969553;28;20556;-35
2022/04/09 03:15:32;;;;;;;2.97;1.33;;;;;;;;;;4955113;28;20034;-35
2022/04/09 03:17:59;;;;;;;7.70;1.17;;;;;;;;;;4969635;28;20071;-35
2022/04/09 03:20:25;;;;;;;5.07;1.13;;;;;;;;;;4953549;28;20480;-35
2022/04/09 03:22:53;;;;;;;5.07;1.40;;;;;;;;;;4969430;28;20078;-34
2022/04/09 03:25:34;;;;;;;3.85;1.25;;;;;;;;;;4953471;28;20031;-35
2022/04/09 03:28:00;;;;;;;4.05;1.33;;;;;;;;;;4969456;28;20031;-35
2022/04/09 03:30:25;;;;;;;13.25;2.08;;;;;;;;;;4953135;28;20154;-35
2022/04/09 03:32:52;;;;;;;7.00;1.45;;;;;;;;;;4969308;28;20537;-35
2022/04/09 03:35:23;;;;;;;9.70;2.45;;;;;;;;;;4954711;28;20031;-35
2022/04/09 03:37:51;;;;;;;10.55;1.20;;;;;;;;;;4969260;28;20456;-35
2022/04/09 03:40:21;;;;;;;10.52;1.77;;;;;;;;;;4952648;28;20031;-35
2022/04/09 03:42:47;;;;;;;7.88;2.20;;;;;;;;;;4952454;28;20054;-35
2022/04/09 03:45:13;;;;;;;12.07;2.38;;;;;;;;;;4954490;28;20150;-34
2022/04/09 03:47:40;;;;;;;12.48;2.33;;;;;;;;;;4969098;28;20379;-35
2022/04/09 03:50:11;;;;;;;3.08;1.38;;;;;;;;;;4952896;29;20668;-36
2022/04/09 03:52:36;;;;;;;8.32;1.50;;;;;;;;;;4968837;28;20039;-36
2022/04/09 03:55:01;;;;;;;5.88;1.75;;;;;;;;;;4954282;28;20043;-35
2022/04/09 03:57:27;;;;;;;3.78;1.70;;;;;;;;;;4968890;28;20122;-35
2022/04/09 03:59:55;;;;;;;9.88;2.03;;;;;;;;;;4952777;28;20019;-35
2022/04/09 04:02:22;;;;;;;4.55;1.75;;;;;;;;;;4968772;28;20371;-35
2022/04/09 04:04:47;;;;;;;4.72;1.38;;;;;;;;;;4952739;28;20034;-35
2022/04/09 04:07:13;;;;;;;2.35;1.00;;;;;;;;;;4968719;28;20038;-35
2022/04/09 04:09:41;;;;;;;5.63;1.67;;;;;;;;;;4952604;29;20023;-35
2022/04/09 04:12:07;;;;;;;3.55;1.48;;;;;;;;;;4968496;28;20472;-35
2022/04/09 04:14:32;;;;;;;6.72;2.28;;;;;;;;;;4952660;28;20026;-35
2022/04/09 04:16:59;;;;;;;5.90;1.25;;;;;;;;;;4968599;28;20059;-34
2022/04/09 04:19:25;;;;;;;3.63;1.30;;;;;;;;;;4952366;28;20023;-35
2022/04/09 04:21:53;;;;;;;2.45;1.63;;;;;;;;;;4952462;29;20034;-34
2022/04/09 04:24:19;;;;;;;5.78;1.40;;;;;;;;;;4952259;28;20501;-35
2022/04/09 04:26:46;;;;;;;9.48;1.48;;;;;;;;;;4968423;28;20528;-35
2022/04/09 04:29:18;;;;;;;3.42;1.00;;;;;;;;;;4952326;28;20043;-35
2022/04/09 04:31:45;;;;;;;7.28;1.52;;;;;;;;;;4968235;28;20028;-35
2022/04/09 04:34:11;;;;;;;11.30;2.05;;;;;;;;;;4952119;28;20147;-35
2022/04/09 04:36:41;;;;;;;7.55;1.27;;;;;;;;;;4968327;28;20031;-35
2022/04/09 04:39:06;;;;;;;6.10;1.40;;;;;;;;;;4952106;28;20097;-35
2022/04/09 04:41:32;;;;;;;5.57;1.67;;;;;;;;;;4968165;28;20019;-35
2022/04/09 04:43:59;;;;;;;5.20;1.05;;;;;;;;;;4951996;28;20059;-35
2022/04/09 04:46:31;;;;;;;7.07;1.20;;;;;;;;;;4953473;28;20745;-34
2022/04/09 04:48:56;;;;;;;4.30;1.70;;;;;;;;;;4968243;28;20210;-35
2022/04/09 04:51:24;;;;;;;2.65;1.30;;;;;;;;;;4953270;28;20038;-35
2022/04/09 04:53:49;;;;;;;9.65;2.10;;;;;;;;;;4953338;28;20039;-35
2022/04/09 04:56:15;;;;;;;2.38;1.20;;;;;;;;;;4951944;28;20418;-35
2022/04/09 04:58:48;;;;;;;;;;;;;;;;;;4952419;28;20035;-35
2022/04/09 05:01:15;;;;;;;3.85;1.67;;;;;;;;;;4953432;28;19914;-35
2022/04/09 05:03:45;;;;;;;6.35;1.55;;;;;;;;;;4951815;29;20023;-35
2022/04/09 05:06:18;;;;;;;;;;;;;;;;;;4968342;28;20039;-35
2022/04/09 05:08:45;;;;;;;2.97;1.58;;;;;;;;;;4968000;28;19914;-35
2022/04/09 05:11:15;;;;;;;9.60;1.25;;;;;;;;;;4967848;28;20175;-35
2022/04/09 05:13:41;;;;;;;12.32;1.73;;;;;;;;;;4951835;28;20047;-35
2022/04/09 05:16:09;;;;;;;7.97;1.50;;;;;;;;;;4951696;28;20023;-35
2022/04/09 05:18:40;;;;;;;6.97;2.65;;;;;;;;;;4967882;28;20113;-35
2022/04/09 05:21:06;;;;;;;4.00;1.30;;;;;;;;;;4952921;28;20110;-35
2022/04/09 05:23:32;;;;;;;6.10;1.73;;;;;;;;;;4953023;28;20023;-34
2022/04/09 05:25:57;;;;;;;4.90;1.10;;;;;;;;;;4967779;28;20051;-37
2022/04/09 05:28:23;;;;;;;6.25;1.10;;;;;;;;;;4953009;28;20028;-35
2022/04/09 05:30:52;;;;;;;4.45;1.23;;;;;;;;;;4967751;28;20393;-35
2022/04/09 05:33:18;;;;;;;17.45;3.17;;;;;;;;;;4952877;28;20549;-35
2022/04/09 05:35:49;;;;;;;5.53;1.55;;;;;;;;;;4967815;28;20042;-35
2022/04/09 05:38:16;;;;;;;6.00;2.03;;;;;;;;;;4967613;28;20038;-35
2022/04/09 05:40:42;;;;;;;11.90;2.38;;;;;;;;;;4951820;28;20110;-35
2022/04/09 05:43:53;;;;;;;5.03;1.42;;;;;;;;;;4967509;28;20059;-36
2022/04/09 05:46:22;;;;;;;;;;;;;;;;;;4967954;28;20066;-35
2022/04/09 05:48:48;;;;;;;6.00;1.20;;;;;;;;;;4967672;28;19910;-35
2022/04/09 05:51:14;;;;;;;6.40;1.45;;;;;;;;;;4967454;28;20379;-34
2022/04/09 05:53:44;;;;;;;5.53;1.52;;;;;;;;;;4951397;28;20507;-34
2022/04/09 05:56:10;;;;;;;4.20;1.27;;;;;;;;;;4951421;29;20031;-34
2022/04/09 05:58:41;;;;;;;3.92;1.55;;;;;;;;;;4951443;28;20582;-34
2022/04/09 06:01:10;;;;;;;6.20;1.42;;;;;;;;;;4967395;28;20029;-35
2022/04/09 06:03:35;;;;;;;3.60;1.38;;;;;;;;;;4951451;28;20106;-34
2022/04/09 06:06:03;;;;;;;3.40;1.05;;;;;;;;;;4954743;28;20126;-35
2022/04/09 06:08:35;;;;;;;4.87;1.20;;;;;;;;;;4954885;28;20035;-34
2022/04/09 06:11:11;;;;;;;6.50;1.58;;;;;;;;;;4956239;28;20268;-34
2022/04/09 06:13:37;;;;;;;4.25;1.50;;;;;;;;;;4970636;28;20039;-35
2022/04/09 06:16:06;;;;;;;12.05;1.40;;;;;;;;;;4954761;28;20561;-35
2022/04/09 06:18:38;;;;;;;11.32;1.73;;;;;;;;;;4956267;28;20422;-35
2022/04/09 06:21:05;;;;;;;3.35;0.95;;;;;;;;;;4954458;28;20039;-34
2022/04/09 06:23:31;;;;;;;5.20;1.23;;;;;;;;;;4955897;28;20094;-35
2022/04/09 06:25:56;;;;;;;2.75;0.90;;;;;;;;;;4970590;28;20123;-35
2022/04/09 06:28:31;;;;;;;6.68;1.45;;;;;;;;;;4954492;28;20156;-34
2022/04/09 06:30:58;;;;;;;1.45;1.20;;;;;;;;;;4954389;28;20578;-35
2022/04/09 06:33:27;;;;;;;7.47;1.27;;;;;;;;;;4954298;28;20453;-35
2022/04/09 06:35:58;;;;;;;6.63;1.95;;;;;;;;;;4970396;28;20031;-35
2022/04/09 06:38:27;;;;;;;10.38;1.35;;;;;;;;;;4970276;28;20035;-34
2022/04/09 06:40:54;;;;;;;8.85;1.33;;;;;;;;;;4954217;28;20023;-35
2022/04/09 06:43:26;;;;;;;7.22;1.42;;;;;;;;;;4970091;28;20108;-35
2022/04/09 06:46:04;;;;;;;8.13;1.58;;;;;;;;;;4954228;28;20042;-35
2022/04/09 06:48:33;;;;;;;5.70;1.27;;;;;;;;;;4955683;28;20066;-35
2022/04/09 06:51:25;;;;;;;10.88;1.52;;;;;;;;;;4946880;28;20038;-35
2022/04/09 06:53:56;;;;;;;6.90;1.80;;;;;;;;;;4970040;28;20039;-35
2022/04/09 06:56:23;;;;;;;3.33;1.23;;;;;;;;;;4969952;28;20043;-35
2022/04/09 06:58:50;;;;;;;4.90;1.73;;;;;;;;;;4953954;28;20023;-35
2022/04/09 07:01:16;;;;;;;4.78;1.65;;;;;;;;;;4969853;28;20034;-34
2022/04/09 07:03:47;;;;;;;6.78;1.83;;;;;;;;;;4953854;28;20499;-34
2022/04/09 07:06:16;;;;;;;8.55;2.35;;;;;;;;;;4955264;28;20038;-34
2022/04/09 07:08:41;;;;;;;11.75;2.08;;;;;;;;;;4955100;28;20521;-35
2022/04/09 07:11:07;;;;;;;7.18;1.58;;;;;;;;;;4954830;28;20054;-34
2022/04/09 07:13:33;;;;;;;4.80;1.73;;;;;;;;;;4955238;28;20032;-34
2022/04/09 07:15:59;;;;;;;11.40;2.08;;;;;;;;;;4955103;28;20023;-34
2022/04/09 07:18:25;;;;;;;8.18;2.15;;;;;;;;;;4954707;28;20027;-34
2022/04/09 07:20:50;;;;;;;9.70;2.33;;;;;;;;;;4954813;28;20510;-34
2022/04/09 07:23:16;;;;;;;6.32;1.90;;;;;;;;;;4954686;28;20102;-35
2022/04/09 07:25:42;;;;;;;6.07;1.77;;;;;;;;;;4954731;28;20033;-35
2022/04/09 07:28:09;;;;;;;6.82;1.45;;;;;;;;;;4953309;28;20023;-35
2022/04/09 07:30:34;;;;;;;4.10;1.48;;;;;;;;;;4954611;28;20508;-35
2022/04/09 07:33:00;;;;;;;3.42;1.27;;;;;;;;;;4954425;28;20078;-34
2022/04/09 07:35:26;;;;;;;5.15;1.88;;;;;;;;;;4954729;28;20118;-34
2022/04/09 07:37:54;;;;;;;10.10;1.90;;;;;;;;;;4954598;28;20023;-34
2022/04/09 07:40:20;;;;;;;3.78;1.20;;;;;;;;;;4954281;28;20054;-34
2022/04/09 07:42:46;;;;;;;5.60;1.17;;;;;;;;;;4954241;28;20037;-35
2022/04/09 07:45:13;;;;;;;7.97;1.83;;;;;;;;;;4954247;28;20043;-35
2022/04/09 07:47:39;;;;;;;3.33;1.00;;;;;;;;;;4954317;28;20094;-35
2022/04/09 07:50:06;;;;;;;9.55;2.33;;;;;;;;;;4954285;28;20489;-35
2022/04/09 07:52:32;;;;;;;4.10;1.02;;;;;;;;;;4954088;28;20045;-34
2022/04/09 07:54:58;;;;;;;10.30;2.25;;;;;;;;;;4954162;28;20027;-34
2022/04/09 07:57:26;;;;;;;3.38;1.42;;;;;;;;;;4954119;28;20042;-34
2022/04/09 07:59:57;;;;;;;3.38;1.67;;;;;;;;;;4954047;28;20094;-35
2022/04/09 08:02:24;;;;;;;5.80;1.15;;;;;;;;;;4953998;28;20031;-35
2022/04/09 08:04:50;;;;;;;4.35;1.45;;;;;;;;;;4954277;28;20023;-35
2022/04/09 08:07:16;;;;;;;4.57;1.63;;;;;;;;;;4954173;28;20110;-35
2022/04/09 08:09:44;;;;;;;6.53;1.67;;;;;;;;;;4954235;28;20546;-36
2022/04/09 08:12:12;;;;;;;11.85;1.23;;;;;;;;;;4953877;28;20097;-37
2022/04/09 08:14:38;;;;;;;12.90;1.65;;;;;;;;;;4953805;28;20474;-34
2022/04/09 08:17:04;;;;;;;10.25;1.27;;;;;;;;;;4953774;28;20037;-34
2022/04/09 08:19:29;;;;;;;8.38;1.58;;;;;;;;;;4953710;28;20023;-35
2022/04/09 08:21:56;;;;;;;6.10;1.50;;;;;;;;;;4953602;28;20031;-35
2022/04/09 08:24:21;;;;;;;7.22;1.52;;;;;;;;;;4953628;28;20023;-35
2022/04/09 08:26:47;;;;;;;6.45;1.10;;;;;;;;;;4953499;28;20034;-34
2022/04/09 08:29:18;;;;;;;4.28;1.70;;;;;;;;;;4953511;28;20019;-34
2022/04/09 08:31:47;;;;;;;11.32;2.95;;;;;;;;;;4953737;28;20037;-34
2022/04/09 08:34:19;;;;;;;5.25;1.58;;;;;;;;;;4953556;28;20023;-35
2022/04/09 08:36:45;;;;;;;7.35;1.80;;;;;;;;;;4953540;28;20382;-35
2022/04/09 08:39:11;;;;;;;6.18;1.80;;;;;;;;;;4968318;28;20055;-34
2022/04/09 08:41:37;;;;;;;4.13;1.50;;;;;;;;;;4953706;28;20500;-34
2022/04/09 08:44:03;;;;;;;1.88;0.65;;;;;;;;;;4953204;28;20062;-35
2022/04/09 08:46:30;;;;;;;6.78;1.25;;;;;;;;;;4953378;28;20019;-35
2022/04/09 08:48:57;;;;;;;3.40;1.85;;;;;;;;;;4953365;28;20579;-35
2022/04/09 08:51:23;;;;;;;2.90;0.90;;;;;;;;;;4951941;28;20417;-34
2022/04/09 08:53:49;;;;;;;5.32;0.98;;;;;;;;;;4953219;28;20042;-35
2022/04/09 08:56:17;;;;;;;1.83;1.23;;;;;;;;;;4953260;28;20458;-35
2022/04/09 08:58:43;;;;;;;9.05;2.00;;;;;;;;;;4953245;28;20024;-34
2022/04/09 09:01:08;;;;;;;7.15;1.30;;;;;;;;;;4953287;28;20179;-35
2022/04/09 09:03:35;;;;;;;6.38;1.23;;;;;;;;;;4953206;28;20027;-35
2022/04/09 09:06:01;;;;;;;6.43;1.70;;;;;;;;;;4953192;28;20031;-34
2022/04/09 09:08:41;;;;;;;11.60;1.55;;;;;;;;;;4953395;28;20027;-34
2022/04/09 09:11:06;;;;;;;5.18;2.08;;;;;;;;;;4953050;28;20036;-34
2022/04/09 09:13:47;;;;;;;4.00;1.13;;;;;;;;;;4952986;28;20031;-35
2022/04/09 09:16:28;;;;;;;3.90;1.20;;;;;;;;;;4953101;28;20038;-35
2022/04/09 09:18:57;;;;;;;7.97;1.67;;;;;;;;;;4953139;28;20039;-35
2022/04/09 09:21:28;;;;;;;9.23;1.30;;;;;;;;;;4952945;28;20573;-35
2022/04/09 09:24:06;;;;;;;3.05;1.30;;;;;;;;;;4953107;28;20123;-35
2022/04/09 09:26:34;;;;;;;6.20;1.63;;;;;;;;;;4952948;28;20071;-35
2022/04/09 09:29:00;;;;;;;6.20;2.05;;;;;;;;;;4953082;28;20027;-35
2022/04/09 09:31:39;;;;;;;2.13;1.30;;;;;;;;;;4953173;28;20035;-35
2022/04/09 09:34:12;;;;;;;3.58;1.20;;;;;;;;;;4953156;28;20394;-35
2022/04/09 09:36:40;;;;;;;4.55;1.70;;;;;;;;;;4952986;28;20102;-35
2022/04/09 09:39:06;;;;;;;7.93;1.13;;;;;;;;;;4953446;28;20038;-35
2022/04/09 09:41:46;;;;;;;3.45;1.60;;;;;;;;;;4956765;28;20031;-35
2022/04/09 09:44:12;;;;;;;8.85;1.38;;;;;;;;;;4956303;28;20086;-34
2022/04/09 09:46:38;;;;;;;5.15;1.88;;;;;;;;;;4955286;28;20049;-35
2022/04/09 09:49:03;;;;;;;5.63;1.45;;;;;;;;;;4956543;28;20115;-34
2022/04/09 09:51:29;;;;;;;5.47;1.30;;;;;;;;;;4956313;28;20114;-34
2022/04/09 09:54:07;;;;;;;5.65;1.40;;;;;;;;;;4956581;28;20134;-35
2022/04/09 09:56:35;;;;;;;6.75;1.40;;;;;;;;;;4956569;28;20054;-35
2022/04/09 09:59:02;;;;;;;7.28;1.50;;;;;;;;;;4956621;28;20414;-34
2022/04/09 10:01:28;;;;;;;1.10;0.98;;;;;;;;;;4956071;29;20078;-35
2022/04/09 10:03:54;;;;;;;5.25;1.27;;;;;;;;;;4956220;28;20028;-35
2022/04/09 10:06:23;;;;;;;7.22;1.38;;;;;;;;;;4970954;28;20046;-34
2022/04/09 10:08:48;;;;;;;6.85;1.17;;;;;;;;;;4956053;28;20102;-34
2022/04/09 10:11:20;;;;;;;9.82;1.42;;;;;;;;;;4956214;28;20126;-35
2022/04/09 10:13:47;;;;;;;3.38;1.33;;;;;;;;;;4956034;28;20086;-35
2022/04/09 10:16:18;;;;;;;5.20;2.22;;;;;;;;;;4955911;29;20023;-35
2022/04/09 10:18:46;;;;;;;7.75;2.22;;;;;;;;;;4956003;28;20070;-35
2022/04/09 10:21:12;;;;;;;2.85;1.17;;;;;;;;;;4956051;28;20050;-35
2022/04/09 10:23:38;;;;;;;5.13;1.40;;;;;;;;;;4955839;29;20066;-35
2022/04/09 10:26:04;;;;;;;8.07;1.15;;;;;;;;;;4955860;28;20090;-34
2022/04/09 10:28:34;;;;;;;4.53;1.10;;;;;;;;;;4970495;28;20041;-35
2022/04/09 10:31:00;;;;;;;5.13;1.17;;;;;;;;;;4955620;28;20031;-35
2022/04/09 10:33:30;;;;;;;5.03;1.25;;;;;;;;;;4955558;28;20136;-35
2022/04/09 10:36:02;;;;;;;10.05;1.60;;;;;;;;;;4955690;28;20019;-35
2022/04/09 10:38:27;;;;;;;8.70;1.45;;;;;;;;;;4955540;28;20081;-34
2022/04/09 10:40:55;;;;;;;13.43;1.77;;;;;;;;;;4955551;28;20422;-35
2022/04/09 10:43:26;;;;;;;10.32;1.42;;;;;;;;;;4955283;28;20051;-35
2022/04/09 10:46:05;;;;;;;6.57;1.35;;;;;;;;;;4955605;28;20059;-35
2022/04/09 10:48:35;;;;;;;8.15;1.83;;;;;;;;;;4955622;28;20035;-35
2022/04/09 10:51:04;;;;;;;7.47;1.63;;;;;;;;;;4954842;28;20480;-35
2022/04/09 10:53:43;;;;;;;7.55;1.88;;;;;;;;;;4955258;28;20046;-35
2022/04/09 10:56:12;;;;;;;4.53;1.20;;;;;;;;;;4955397;28;20114;-35
2022/04/09 10:58:56;;;;;;;5.03;1.70;;;;;;;;;;4955182;28;20489;-35
2022/04/09 11:01:42;;;;;;;3.33;1.25;;;;;;;;;;4955085;28;20047;-35
2022/04/09 11:04:30;;;;;;;3.63;1.23;;;;;;;;;;4954513;28;20071;-34
2022/04/09 11:07:04;;;;;;;2.92;0.85;;;;;;;;;;4955100;28;20043;-35
2022/04/09 11:09:45;;;;;;;1.67;0.52;;;;;;;;;;4955102;28;20023;-35
2022/04/09 11:12:12;;;;;;;0.30;0.30;;;;;;;;;;4969751;28;20043;-35
2022/04/09 11:14:45;;;;;;;0.32;0.30;;;;;;;;;;4954968;28;20382;-35
2022/04/09 11:17:39;;;;;;;0.50;0.22;;;;;;;;;;4954973;28;20047;-34
2022/04/09 11:20:12;;;;;;;10.93;2.47;;;;;;;;;;4954106;28;20130;-35
2022/04/09 11:22:38;;;;;;;0.75;0.57;;;;;;;;;;4954864;28;20466;-35
2022/04/09 11:25:04;;;;;;;1.08;0.57;;;;;;;;;;4954731;28;20059;-35
2022/04/09 11:27:30;;;;;;;0.28;0.28;;;;;;;;;;4969430;28;20031;-35
2022/04/09 11:29:59;;;;;;;0.08;0.08;;;;;;;;;;4954670;28;20024;-34
2022/04/09 11:32:25;;;;;;;0.60;0.43;;;;;;;;;;4954454;28;20046;-35
2022/04/09 11:34:57;;;;;;;0.10;0.10;;;;;;;;;;4954842;28;20023;-35
2022/04/09 11:37:26;;;;;;;0.10;0.10;;;;;;;;;;4954857;28;20027;-35
2022/04/09 11:39:52;;;;;;;0.52;0.52;;;;;;;;;;4954538;28;20462;-35
2022/04/09 11:42:18;;;;;;;0.75;0.20;;;;;;;;;;4954261;28;20031;-34
2022/04/09 11:44:43;;;;;;;1.55;0.25;;;;;;;;;;4954330;28;20058;-34
2022/04/09 11:47:09;;;;;;;0.10;0.10;;;;;;;;;;4954627;28;20027;-35
2022/04/09 11:49:34;;;;;;;0.20;0.20;;;;;;;;;;4954238;28;20019;-34
2022/04/09 11:52:01;;;;;;;0.10;0.10;;;;;;;;;;4954176;28;20031;-34
2022/04/09 11:54:33;;;;;;;0.10;0.10;;;;;;;;;;4954257;28;20027;-35
2022/04/09 11:57:02;;;;;;;0.10;0.10;;;;;;;;;;4954205;28;20062;-34
2022/04/09 11:59:31;;;;;;;1.75;0.10;;;;;;;;;;4954041;28;20027;-35
2022/04/09 12:01:57;;;;;;;0.10;0.10;;;;;;;;;;4953253;28;20422;-35
2022/04/09 12:04:23;;;;;;;0.10;0.10;;;;;;;;;;4954095;28;20026;-35
2022/04/09 12:06:49;;;;;;;0.03;0.03;;;;;;;;;;4954301;28;20063;-35
2022/04/09 12:09:15;;;;;;;0.00;0.00;;;;;;;;;;4953927;28;20047;-35
2022/04/09 12:11:50;;;;;;;0.22;0.10;;;;;;;;;;4954064;28;20055;-35
2022/04/09 12:14:17;;;;;;;3.63;1.10;;;;;;;;;;4953782;28;20058;-35
2022/04/09 12:16:42;;;;;;;1.35;0.17;;;;;;;;;;4968653;28;20046;-35
2022/04/09 12:19:08;;;;;;;0.10;0.10;;;;;;;;;;4953799;28;20073;-35
2022/04/09 12:21:35;;;;;;;0.10;0.10;;;;;;;;;;4953970;29;20462;-35
2022/04/09 12:24:05;;;;;;;0.40;0.40;;;;;;;;;;4953687;28;20038;-34
2022/04/09 12:26:32;;;;;;;0.10;0.10;;;;;;;;;;4953678;28;20042;-34
2022/04/09 12:29:08;;;;;;;1.48;0.25;;;;;;;;;;4953742;28;20015;-34
2022/04/09 12:31:34;;;;;;;1.55;0.15;;;;;;;;;;4953738;28;20031;-35
2022/04/09 12:34:00;;;;;;;0.00;0.00;;;;;;;;;;4953590;28;20039;-35
2022/04/09 12:36:25;;;;;;;0.10;0.10;;;;;;;;;;4953860;28;20039;-34
2022/04/09 12:38:51;;;;;;;0.80;0.17;;;;;;;;;;4953511;28;20046;-34
2022/04/09 12:41:17;;;;;;;0.20;0.20;;;;;;;;;;4953394;28;20092;-35
2022/04/09 12:43:43;;;;;;;0.10;0.10;;;;;;;;;;4953360;28;20054;-35
2022/04/09 12:46:13;;;;;;;0.10;0.10;;;;;;;;;;4953656;28;20082;-35
2022/04/09 12:48:42;;;;;;;0.10;0.10;;;;;;;;;;4953514;28;20439;-35
2022/04/09 12:51:08;;;;;;;0.85;0.20;;;;;;;;;;4953802;28;20032;-35
2022/04/09 12:53:33;;;;;;;0.10;0.10;;;;;;;;;;4953549;28;20039;-35
2022/04/09 12:55:59;;;;;;;0.10;0.10;;;;;;;;;;4953869;28;20027;-34
2022/04/09 12:58:24;;;;;;;0.20;0.20;;;;;;;;;;4953677;28;20027;-35
2022/04/09 13:00:50;;;;;;;0.68;0.20;;;;;;;;;;4953264;28;20062;-35
2022/04/09 13:03:17;;;;;;;0.10;0.10;;;;;;;;;;4953258;28;20027;-35
2022/04/09 13:05:43;;;;;;;0.10;0.10;;;;;;;;;;4953661;28;20034;-35
2022/04/09 13:08:08;;;;;;;1.17;0.30;;;;;;;;;;4953510;28;20023;-34
2022/04/09 13:10:34;;;;;;;6.03;0.17;;;;;;;;;;4953114;28;20678;-34
2022/04/09 13:13:00;;;;;;;0.10;0.10;;;;;;;;;;4953629;28;20038;-35
2022/04/09 13:15:26;;;;;;;0.20;0.10;;;;;;;;;;4957184;28;20118;-35
2022/04/09 13:17:51;;;;;;;0.45;0.10;;;;;;;;;;4957160;28;20103;-34
2022/04/09 13:20:18;;;;;;;0.10;0.10;;;;;;;;;;4956872;28;20027;-34
2022/04/09 13:22:43;;;;;;;0.10;0.10;;;;;;;;;;4957317;28;20046;-35
2022/04/09 13:25:09;;;;;;;1.17;0.20;;;;;;;;;;4956991;28;20701;-35
2022/04/09 13:27:35;;;;;;;0.10;0.10;;;;;;;;;;4956760;28;20026;-34
2022/04/09 13:30:01;;;;;;;2.08;0.13;;;;;;;;;;4956298;28;20490;-35
2022/04/09 13:32:29;;;;;;;0.25;0.17;;;;;;;;;;4956086;28;20035;-34
2022/04/09 13:34:54;;;;;;;0.10;0.10;;;;;;;;;;4970922;28;20035;-35
2022/04/09 13:37:20;;;;;;;0.73;0.73;;;;;;;;;;4956494;28;20027;-35
2022/04/09 13:39:46;;;;;;;0.10;0.10;;;;;;;;;;4956265;28;20098;-35
2022/04/09 13:42:11;;;;;;;2.30;0.20;;;;;;;;;;4955849;28;20533;-34
2022/04/09 13:44:43;;;;;;;0.05;0.05;;;;;;;;;;4955747;28;20078;-35
2022/04/09 13:47:10;;;;;;;0.10;0.10;;;;;;;;;;4956288;28;20426;-35
2022/04/09 13:49:35;;;;;;;1.20;0.20;;;;;;;;;;4956101;28;20035;-34
2022/04/09 13:52:02;;;;;;;0.10;0.10;;;;;;;;;;4955760;28;20054;-35
2022/04/09 13:54:27;;;;;;;0.10;0.10;;;;;;;;;;4955985;28;20054;-34
2022/04/09 13:56:53;;;;;;;0.00;0.00;;;;;;;;;;4954392;29;20066;-35
2022/04/09 13:59:18;;;;;;;0.32;0.10;;;;;;;;;;4955854;28;20073;-35
2022/04/09 14:01:44;;;;;;;1.73;0.10;;;;;;;;;;4970403;28;20494;-35
2022/04/09 14:04:10;;;;;;;0.00;0.00;;;;;;;;;;4955862;28;20098;-35
2022/04/09 14:06:35;;;;;;;2.03;0.17;;;;;;;;;;4955469;28;20421;-35
2022/04/09 14:09:01;;;;;;;0.10;0.10;;;;;;;;;;4955431;28;20051;-35
2022/04/09 14:11:27;;;;;;;0.10;0.10;;;;;;;;;;4955308;28;20482;-35
2022/04/09 14:13:53;;;;;;;0.30;0.10;;;;;;;;;;4955694;28;20039;-35
2022/04/09 14:16:19;;;;;;;0.08;0.08;;;;;;;;;;4955370;28;20151;-35
2022/04/09 14:18:44;;;;;;;2.75;0.25;;;;;;;;;;4955283;28;20127;-35
2022/04/09 14:21:10;;;;;;;0.20;0.20;;;;;;;;;;4955225;28;20027;-35
2022/04/09 14:23:35;;;;;;;0.10;0.10;;;;;;;;;;4955165;28;20038;-35
2022/04/09 14:26:01;;;;;;;0.17;0.10;;;;;;;;;;4954481;28;20031;-35
2022/04/09 14:28:27;;;;;;;0.10;0.10;;;;;;;;;;4955098;28;20396;-34
2022/04/09 14:30:53;;;;;;;0.00;0.00;;;;;;;;;;4955070;28;20053;-35
2022/04/09 14:33:20;;;;;;;0.10;0.10;;;;;;;;;;4955056;28;20139;-34
2022/04/09 14:35:47;;;;;;;2.78;0.20;;;;;;;;;;4954990;29;20027;-34
2022/04/09 14:38:12;;;;;;;0.10;0.10;;;;;;;;;;4955015;28;20026;-35
2022/04/09 14:40:38;;;;;;;1.10;0.20;;;;;;;;;;4954861;28;20031;-34
2022/04/09 14:43:03;;;;;;;0.10;0.10;;;;;;;;;;4954697;29;20116;-34
2022/04/09 14:45:29;;;;;;;0.15;0.10;;;;;;;;;;4954760;28;20034;-35
2022/04/09 14:47:55;;;;;;;2.38;0.20;;;;;;;;;;4955336;28;20688;-35
2022/04/09 14:50:20;;;;;;;0.10;0.10;;;;;;;;;;4954743;28;20030;-34